Terminal Aerodrome Forecast
Issued by NWS Goodland, KS

Home | Current Version | Previous Version | Text Only | Print | Product List | Glossary On
Versions: 1 2 3 4 5 6 7 8 9 10 11 12
000
FTUS43 KGLD 251724
TAFGLD
TAF
KGLD 251724Z 2518/2618 35025G32KT P6SM FEW250
     FM252200 34015G25KT P6SM SCT080 SCT250
     FM260600 27012KT P6SM SKC=

USA.gov is the U.S. government's official web portal to all federal, state and local government web resources and services.